DONNÉES MÉTÉO

HIER
Time Temp. Dewp. Hum. Directi La vitess Wind gust Bar. 1h Prec. 24h Prec.
00:06 10 9.4 96 278 2.2 6.1 997.2 0.0000 0.0000
00:15 10.1 9.3 95 279 2.2 4.4 997.5 0.0000 0.0000
00:26 10.1 9.2 94 290 2.2 5.8 997.3 0.0000 0.0000
00:36 10.1 9 93 286 2.2 5 997.5 0.0000 0.0000
00:46 10.2 9 92 279 2.5 5.8 997.7 0.0000 0.0000
00:56 10.2 8.6 90 284 2.5 5 997.9 0.0000 0.0000
01:06 10.1 8.4 89 284 2.2 6.1 998.2 0.0000 0.0000
01:16 10 7.9 87 280 2.2 5.6 998.5 0.0000 0.0000
01:26 10 7.8 86 287 1.9 5.8 998.4 0.0000 0.0000
01:37 10 7.4 84 280 1.9 4.2 998.3 0.0000 0.0000
01:46 10 7.4 84 281 2.2 5.8 998.3 0.0000 0.0000
01:56 9.9 7.2 83 277 2.5 6.4 998.5 0.0000 0.0000
02:07 9.9 7.2 83 288 2.2 4.7 998.7 0.0000 0.0000
02:17 9.9 7 82 284 2.8 5.6 998.7 0.0000 0.0000
02:26 9.9 7 82 283 1.9 4.7 999 0.0000 0.0000
02:36 9.9 7 82 278 2.5 6.9 999.1 0.0000 0.0000
02:47 9.9 6.8 81 277 3.3 8.3 999.2 0.0000 0.0000
02:57 9.9 6.8 81 276 2.8 7.5 999.4 0.0000 0.0000
03:07 10 6.7 80 280 2.8 5.8 999.7 0.0000 0.0000
03:17 9.9 6.6 80 276 2.2 5.8 999.7 0.0000 0.0000
03:27 9.9 6.4 79 282 2.5 6.4 999.8 0.0000 0.0000
03:37 9.8 6.3 79 274 2.8 6.4 1000 0.0000 0.0000
03:47 9.8 6.2 78 282 2.2 6.1 1000.2 0.0000 0.0000
03:58 9.8 6.2 78 278 2.5 6.1 1000.2 0.0000 0.0000
04:07 9.7 6.1 78 279 2.2 4.7 1000.4 0.0000 0.0000
04:17 9.7 5.9 77 279 2.5 6.1 1000.3 0.0000 0.0000
04:28 9.7 5.9 77 278 2.5 7.5 1000.5 0.0000 0.0000
04:37 9.7 5.9 77 280 2.5 8.1 1000.6 0.0000 0.0000
04:47 9.7 5.7 76 283 2.5 6.4 1000.7 0.0000 0.0000
04:57 9.6 5.8 77 295 2.5 6.9 1000.6 0.0000 0.0000
05:08 9.6 5.4 75 299 1.7 4.4 1000.7 0.0000 0.0000
05:17 9.6 5.4 75 300 2.2 6.7 1000.8 0.0000 0.0000
05:27 9.5 5.1 74 301 2.2 5.8 1000.9 0.0000 0.0000
05:38 9.4 5 74 288 2.2 5.8 1001 0.0000 0.0000
05:48 9.3 4.9 74 301 2.2 6.9 1001.3 0.0000 0.0000
05:57 9.2 4.8 74 306 2.2 6.9 1001.4 0.0000 0.0000
06:08 9 4.8 75 298 1.9 5.8 1001.5 0.0000 0.0000
06:18 8.9 4.7 75 297 1.9 4.7 1001.7 0.0000 0.0000
06:28 8.9 4.7 75 285 1.9 4.7 1001.8 0.0000 0.0000
06:38 8.8 4.6 75 305 1.9 4.2 1002 0.0000 0.0000
06:48 8.7 4.7 76 317 2.2 5.6 1002 0.0000 0.0000
06:58 8.6 4.6 76 310 2.2 6.9 1002.1 0.0000 0.0000
07:08 8.6 4.6 76 301 2.2 6.9 1002.2 0.0000 0.0000
07:18 8.5 4.5 76 296 1.9 4.4 1002.5 0.0000 0.0000
07:28 8.5 4.5 76 287 2.2 4.7 1002.8 0.0000 0.0000
07:38 8.5 4.5 76 282 1.7 3.6 1003.2 0.0000 0.0000
07:48 8.5 4.5 76 302 1.7 4.4 1003.2 0.0000 0.0000
07:59 8.5 4.5 76 315 1.9 5.6 1003.4 0.0000 0.0000
08:09 8.6 4.6 76 307 1.7 3.9 1003.5 0.0000 0.0000
08:18 8.8 4.8 76 304 1.9 5.8 1003.6 0.0000 0.0000
08:28 9.1 4.9 75 302 1.7 4.7 1003.8 0.0000 0.0000
08:39 9.3 4.9 74 302 2.5 5.6 1003.7 0.0000 0.0000
08:49 9.5 5.1 74 303 1.9 4.2 1004 0.0000 0.0000
08:58 9.6 5 73 298 2.2 5.6 1004.1 0.0000 0.0000
09:09 9.8 5.4 74 310 1.9 5.6 1004.4 0.0000 0.0000
09:19 9.9 5.3 73 316 1.9 4.4 1004.4 0.0000 0.0000
09:29 10.2 5.6 73 330 2.2 4.4 1004.2 0.0000 0.0000
09:30 10.2 5.6 73 328 2.2 7.5 1004.2 0.0000 0.0000
09:40 10.3 5.7 73 324 2.5 6.4 1004.2 0.0000 0.0000
09:50 10.5 5.7 72 316 1.7 4.4 1004.3 0.0000 0.0000
10:00 10.6 5.8 72 298 1.7 5 1004.4 0.0000 0.0000
10:10 10.8 5.8 71 306 1.4 3.6 1004.3 0.0000 0.0000
10:20 10.9 5.7 70 296 1.9 4.2 1004.7 0.0000 0.0000
10:31 11.2 6.1 71 309 1.7 4.4 1004.8 0.0000 0.0000
10:40 11.3 6.2 71 298 1.7 5.6 1004.8 0.0000 0.0000
10:50 11.5 6 69 279 1.7 5 1005 0.0000 0.0000
11:01 11.5 6.2 70 298 1.7 3.9 1004.8 0.0000 0.0000
11:11 11.5 6.2 70 311 1.7 3.9 1004.8 0.0000 0.0000
11:20 11.6 6.1 69 277 1.7 3.9 1005 0.0000 0.0000
11:30 11.9 6.8 71 303 1.7 4.2 1004.9 0.0000 0.0000
11:41 12.2 6.7 69 265 1.9 4.4 1005 0.0000 0.0000
11:51 12.3 6.8 69 263 3.3 5.6 1005.1 0.0000 0.0000
12:01 12.4 6.9 69 270 1.9 4.7 1005.2 0.0000 0.0000
12:11 12.6 6.9 68 270 2.2 4.7 1005.1 0.0000 0.0000
12:21 12.8 7.3 69 270 2.5 4.7 1005.2 0.0000 0.0000
12:31 13 7.2 68 284 1.9 3.9 1005.3 0.0000 0.0000
12:41 13.3 7.7 69 267 3.3 5.8 1005.5 0.0000 0.0000
12:52 13.2 7.2 67 277 2.2 4.4 1005.5 0.0000 0.0000
13:08 12.9 7.1 68 267 2.8 6.1 1005.6 0.0000 0.0000
13:18 12.7 7 68 270 2.5 4.4 1005.7 0.0000 0.0000
13:28 12.6 7.1 69 275 2.8 6.1 1005.7 0.0000 0.0000
13:38 12.6 7.1 69 270 2.8 6.1 1006 0.0000 0.0000
13:48 12.6 7.1 69 270 2.5 4.7 1005.7 0.0000 0.0000
13:58 12.8 7 68 270 2.2 3.9 1005.8 0.0000 0.0000
14:09 12.7 6.5 66 270 2.5 4.4 1005.8 0.0000 0.0000
14:18 12.6 6.4 66 270 3.6 6.4 1006 0.0000 0.0000
14:28 12.6 6.6 67 273 3.3 5.6 1005.8 0.0000 0.0000
14:31 12.6 6.9 68 270 3.6 6.7 1005.9 0.0000 0.0000
14:41 12.5 6.8 68 270 3.6 5.6 1006 0.0000 0.0000
14:51 12.4 7.1 70 270 2.5 4.7 1006.1 0.0000 0.0000
15:02 12.2 7.1 71 267 2.8 5 1006.1 0.0000 0.0000
15:11 12.2 7.3 72 270 2.5 4.2 1006.1 0.0000 0.0000
15:21 12.1 7.2 72 270 2.2 4.7 1006 0.0000 0.0000
15:31 11.8 7.3 74 270 2.5 4.7 1006 0.0000 0.0000
15:42 11.5 7.4 76 270 1.9 3.3 1005.9 0.0000 0.0000
15:51 11.5 7.4 76 270 1.4 3.3 1005.8 0.0000 0.0000
16:09 11.5 7.2 75 270 0.6 2.5 1005.4 0.0000 0.0000
16:19 11.6 7.3 75 270 0.6 1.9 1005.3 0.0000 0.0000
16:29 11.6 7.5 76 270 0.3 1.4 1005.3 0.0000 0.0000
16:39 11.6 7.7 77 270 0.3 0.8 1005.2 0.0000 0.0000
16:49 11.7 8.2 79 0 0.6 1004.8 0.0000 0.0000
16:59 11.8 7.9 77 270 0.3 0.8 1005.1 0.0000 0.0000
17:09 11.7 7.8 77 270 0.3 2.2 1004.9 0.0000 0.0000
17:29 11.5 7.8 78 270 0.3 1.9 1004.6 0.0000 0.0000
17:40 11.4 8.3 81 262 1.7 4.4 1004.7 0.0000 0.0000
17:50 11.3 8.3 82 270 0.6 1.4 1004.3 0.0000 0.0000
17:59 11.1 8.5 84 270 0.6 1.7 1004.3 0.0000 0.0000
18:10 11 8.6 85 270 0.3 0.6 1004.2 0.0000 0.0000
18:19 11 8.8 86 270 0.3 0.8 1003.9 0.0000 0.0000
18:30 10.9 8.8 87 315 0.3 0.6 1003.8 0.0000 0.0000
18:39 10.8 8.9 88 0 0.6 1003.4 0.0000 0.0000
18:50 10.7 8.8 88 270 0.3 1.7 1003.4 0.0000 0.0000
19:00 10.7 9 89 315 0.3 1.4 1002.9 0.0000 0.0000
19:10 10.9 9.3 90 270 0.3 1.9 1002.8 0.0000 0.0000
19:20 11.1 9.7 91 270 0.3 1.4 1002.9 0.0000 0.0000
19:30 11.3 9.9 91 255 0.6 2.5 1002.6 0.0000 0.0000
19:43 11.7 10.4 92 270 0.6 5.6 1002.6 0.0000 0.0000
19:53 12 10.6 91 255 1.4 3.9 1002.6 0.0000 0.0000
20:03 12.2 10.8 91 258 0.8 2.2 1002.5 0.0000 0.0000
20:13 12.4 11 91 244 0.8 2.5 1002.4 0.0000 0.0000
20:24 12.6 11.2 91 258 0.8 2.5 1002.4 0.0000 0.0000
20:34 12.8 11.4 91 258 1.7 3.3 1002.3 0.0000 0.0000
20:43 13 11.6 91 259 1.7 4.4 1002.2 0.0000 0.0000
20:54 13.2 11.6 90 262 2.2 4.2 1002.3 0.0000 0.0000
21:04 13.3 11.7 90 264 1.7 4.7 1001.8 0.0000 0.0000
21:14 13.4 11.8 90 263 1.7 3.3 1001.9 0.0000 0.0000
21:23 13.5 11.9 90 252 1.4 3.3 1001.6 0.0000 0.0000
21:34 13.6 12 90 260 1.7 4.2 1001.6 0.0000 0.0000
21:44 13.7 12.1 90 261 1.7 4.7 1001.6 0.0000 0.0000
21:54 13.8 12.2 90 264 2.2 4.7 1001.7 0.0000 0.0000
22:04 13.9 12.3 90 270 2.2 3.9 1001.8 0.0000 0.0000
22:14 14 12.4 90 263 2.5 5.6 1001.7 0.0000 0.0000
22:24 14.2 12.4 89 270 2.5 4.7 1001.6 0.0000 0.0000
22:34 14.3 12.5 89 264 2.8 5 1001.4 0.0000 0.0000
22:45 14.4 12.6 89 267 2.8 5 1001.6 0.0000 0.0000
22:55 14.4 12.6 89 270 3.3 5.6 1001.4 0.0000 0.0000
23:04 14.4 12.6 89 270 3.3 5.6 1001.2 0.0000 0.0000
23:15 14.5 12.7 89 266 2.8 5.6 1001.1 0.0000 0.0000
23:25 14.7 12.9 89 270 3.9 7.5 1001.1 0.0000 0.0000
23:35 14.7 12.9 89 270 3.6 6.9 1001.2 0.0000 0.0000
23:45 14.7 12.9 89 265 3.9 6.7 1001 0.0000 0.0000
23:55 14.7 13.1 90 265 3.3 5.8 1001.3 0.0000

SATISTIQUES DU JOUR

2021-09-24
TEMPÉRATURE
MOYEN
11.2
MAXI
14.7
23:25
MINI
8.5
07:18
PRESSION
MOYEN
1002.7
MAXI
1006.1
14:51
MINI
997.2
00:06
POINT DE ROSÉE
MOYEN
7.7
MAXI
13.1
23:55
MINI
4.5
07:18
HUMIDITÉ
MOYEN
79
MAXI
96
00:06
MINI
66
14:09
LA VITESSE DU VENT
MOYEN
2.0
MAXI
3.9
23:25
WIND GUST
MOYEN
4.7
MAXI
8.3
02:47
DIRECTION DU VENT
PREVAILING
W
71.8%
N
0.0
NE
0.0
E
0.0
SE
0.0
S
0.0
SW
0.7
W
71.8
NW
26.1
PRÉCIPITATIONS
RAIN HOUR
0.0
RAIN DAY
0.0
TEMPÉRATURE (°C)
MINI
8.5
MAXI
14.7
MOYEN
11.2
PRESSION (hpa)
MINI
997.2
MAXI
1006.1
MOYEN
1002.7
DEVICE